.
WxDataArchive / Data Records for 2013-02-16
2013-02-15 February 2013 2013-02-17

Data Records for Saturday, 16 February 2013

Time	Temp	Chill	HIndex	Humid	Dewpt	 Wind 	HiWind	WindDir	Rain 	Barom 
-----	----	-----	------	-----	-----	------	------	-------	-----	----- 
00:00	22.1	22.1	22.1	72	14.5	0	0	---	0.00	30.151 
00:05	22.1	22.1	22.1	72	14.5	0	0	---	0.00	30.151 
00:10	21.9	21.9	21.9	72	14.3	0	0	---	0.00	30.151 
00:15	21.8	21.8	21.8	72	14.2	0	0	---	0.00	30.147 
00:20	21.6	21.6	21.6	73	14.3	0	0	---	0.00	30.147 
00:25	21.4	21.4	21.4	73	14.1	0	0	---	0.00	30.147 
00:30	21.4	21.4	21.4	73	14.1	0	0	---	0.00	30.140 
00:35	21.3	21.3	21.3	74	14.3	0	0	---	0.00	30.140 
00:40	21.3	21.3	21.3	74	14.3	0	0	---	0.00	30.140 
00:45	21.3	21.3	21.3	74	14.3	0	0	---	0.00	30.140 
00:50	21.3	21.3	21.3	75	14.6	0	0	---	0.00	30.140 
00:55	21.3	21.3	21.3	75	14.6	0	0	---	0.00	30.140 
01:00	21.3	21.3	21.3	75	14.6	0	0	---	0.00	30.141 
01:05	21.3	21.3	21.3	76	14.9	0	0	---	0.00	30.141 
01:10	21.3	21.3	21.3	76	14.9	0	0	---	0.00	30.141 
01:15	21.3	21.3	21.3	76	14.9	0	0	---	0.00	30.132 
01:20	21.3	21.3	21.3	76	14.9	0	0	---	0.00	30.132 
01:25	21.1	21.1	21.1	76	14.7	0	0	---	0.00	30.132 
01:30	21.1	21.1	21.1	76	14.7	0	0	---	0.00	30.130 
01:35	21.0	21.0	21.0	77	14.9	0	0	---	0.00	30.130 
01:40	20.8	20.8	20.8	77	14.7	0	0	---	0.00	30.130 
01:45	20.6	20.6	20.6	77	14.6	0	0	---	0.00	30.128 
01:50	20.6	20.6	20.6	77	14.6	0	0	---	0.00	30.128 
01:55	20.6	20.6	20.6	77	14.6	0	0	---	0.00	30.128 
02:00	20.5	20.5	20.5	78	14.8	0	0	---	0.00	30.125 
02:05	20.5	20.5	20.5	78	14.8	0	0	---	0.00	30.125 
02:10	20.5	20.5	20.5	78	14.8	0	0	---	0.00	30.125 
02:15	20.3	20.3	20.3	78	14.6	0	0	---	0.00	30.118 
02:20	20.5	20.5	20.5	79	15.0	0	0	---	0.00	30.118 
02:25	20.5	20.5	20.5	79	15.0	0	0	---	0.00	30.118 
02:30	20.6	20.6	20.6	79	15.1	0	0	---	0.00	30.114 
02:35	20.6	20.6	20.6	79	15.1	0	0	---	0.00	30.114 
02:40	20.6	20.6	20.6	79	15.1	0	0	---	0.00	30.114 
02:45	20.6	20.6	20.6	80	15.4	0	0	---	0.00	30.114 
02:50	20.6	20.6	20.6	80	15.4	0	0	---	0.00	30.114 
02:55	20.8	20.8	20.8	80	15.6	0	0	---	0.00	30.114 
03:00	20.8	20.8	20.8	80	15.6	0	0	---	0.00	30.112 
03:05	21.0	21.0	21.0	80	15.8	0	0	---	0.00	30.112 
03:10	21.0	21.0	21.0	80	15.8	0	0	---	0.00	30.112 
03:15	21.0	21.0	21.0	80	15.8	0	0	---	0.00	30.108 
03:20	21.0	21.0	21.0	80	15.8	0	0	---	0.00	30.108 
03:25	21.0	21.0	21.0	80	15.8	0	0	---	0.00	30.108 
03:30	21.0	21.0	21.0	80	15.8	0	0	---	0.00	30.101 
03:35	21.1	21.1	21.1	81	16.2	0	0	---	0.00	30.101 
03:40	21.3	21.3	21.3	81	16.4	0	0	---	0.00	30.101 
03:45	21.3	21.3	21.3	81	16.4	0	0	---	0.00	30.099 
03:50	21.4	21.4	21.4	81	16.5	0	0	---	0.00	30.099 
03:55	21.4	21.4	21.4	81	16.5	0	0	---	0.00	30.099 
04:00	21.4	21.4	21.4	81	16.5	0	0	---	0.00	30.095 
04:05	21.4	21.4	21.4	81	16.5	0	0	---	0.00	30.095 
04:10	21.6	21.6	21.6	81	16.7	0	0	---	0.00	30.095 
04:15	21.8	21.8	21.8	81	16.9	0	1	315	0.00	30.095 
04:20	22.1	22.1	22.1	82	17.5	0	1	315	0.00	30.095 
04:25	22.4	22.4	22.4	82	17.8	0	1	315	0.00	30.095 
04:30	22.5	22.5	22.5	82	17.9	0	2	315	0.00	30.092 
04:35	22.9	22.9	22.9	82	18.2	0	1	315	0.00	30.092 
04:40	22.9	22.9	22.9	82	18.2	0	1	315	0.00	30.092 
04:45	23.0	23.0	23.0	82	18.3	0	2	315	0.00	30.090 
04:50	23.0	23.0	23.0	82	18.3	0	1	315	0.00	30.090 
04:55	23.0	23.0	23.0	82	18.3	0	0	---	0.00	30.090 
05:00	23.0	23.0	23.0	81	18.1	0	0	---	0.00	30.090 
05:05	23.0	23.0	23.0	81	18.1	0	2	315	0.00	30.090 
05:10	23.0	23.0	23.0	81	18.1	0	0	---	0.00	30.090 
05:15	22.9	22.9	22.9	81	18.0	0	0	---	0.00	30.090 
05:20	22.9	22.9	22.9	81	18.0	0	0	---	0.00	30.090 
05:25	22.9	22.9	22.9	81	18.0	0	0	---	0.00	30.090 
05:30	22.9	22.9	22.9	81	18.0	0	0	---	0.00	30.085 
05:35	22.7	22.7	22.7	81	17.8	0	0	---	0.00	30.085 
05:40	22.7	22.7	22.7	81	17.8	0	0	---	0.00	30.085 
05:45	22.7	22.7	22.7	81	17.8	0	0	---	0.00	30.084 
05:50	22.9	22.9	22.9	81	18.0	0	1	315	0.00	30.084 
05:55	22.9	22.9	22.9	82	18.2	0	1	315	0.00	30.084 
06:00	22.7	22.7	22.7	82	18.0	0	1	315	0.00	30.083 
06:05	22.7	22.7	22.7	82	18.0	0	0	---	0.00	30.083 
06:10	22.5	22.5	22.5	83	18.1	0	0	---	0.00	30.083 
06:15	22.5	22.5	22.5	83	18.1	0	1	315	0.00	30.082 
06:20	22.4	22.4	22.4	84	18.3	0	0	---	0.00	30.082 
06:25	22.2	22.2	22.2	84	18.1	0	0	---	0.00	30.082 
06:30	22.2	22.2	22.2	84	18.1	0	0	---	0.00	30.076 
06:35	22.1	22.1	22.1	84	18.0	0	0	---	0.00	30.076 
06:40	21.9	21.9	21.9	84	17.8	0	0	---	0.00	30.076 
06:45	21.6	21.6	21.6	84	17.5	0	0	---	0.00	30.073 
06:50	21.3	21.3	21.3	84	17.2	0	0	---	0.00	30.073 
06:55	21.1	21.1	21.1	84	17.0	0	0	---	0.00	30.073 
07:00	20.8	20.8	20.8	84	16.7	0	0	---	0.00	30.075 
07:05	20.6	20.6	20.6	84	16.5	0	0	---	0.00	30.075 
07:10	20.5	20.5	20.5	84	16.4	0	0	---	0.00	30.075 
07:15	20.3	20.3	20.3	84	16.3	0	0	---	0.00	30.075 
07:20	20.3	20.3	20.3	84	16.3	0	0	---	0.00	30.075 
07:25	20.3	20.3	20.3	84	16.3	0	0	---	0.00	30.075 
07:30	20.3	20.3	20.3	85	16.5	0	0	---	0.00	30.077 
07:35	20.3	20.3	20.3	85	16.5	0	0	---	0.00	30.077 
07:40	20.6	20.6	20.6	85	16.8	0	1	315	0.00	30.077 
07:45	20.8	20.8	20.8	85	17.0	0	1	315	0.00	30.083 
07:50	21.0	21.0	21.0	85	17.2	0	1	315	0.00	30.083 
07:55	21.1	21.1	21.1	85	17.3	0	1	315	0.00	30.083 
08:00	21.3	21.3	21.3	84	17.2	0	1	315	0.00	30.086 
08:05	21.4	21.4	21.4	84	17.3	0	1	315	0.00	30.086 
08:10	21.6	21.6	21.6	84	17.5	0	1	315	0.00	30.086 
08:15	21.8	21.8	21.8	84	17.7	0	2	315	0.00	30.088 
08:20	21.9	21.9	21.9	84	17.8	0	1	315	0.00	30.088 
08:25	21.9	21.9	21.9	83	17.5	0	1	315	0.00	30.088 
08:30	22.1	22.1	22.1	83	17.7	0	1	315	0.00	30.088 
08:35	22.2	22.2	22.2	82	17.6	1	3	248	0.00	30.088 
08:40	22.2	22.2	22.2	82	17.6	1	3	248	0.00	30.088 
08:45	22.4	22.4	22.4	81	17.5	0	2	248	0.00	30.088 
08:50	22.4	22.4	22.4	81	17.5	1	2	248	0.00	30.088 
08:55	22.7	22.7	22.7	81	17.8	0	3	248	0.00	30.088 
09:00	22.9	22.9	22.9	80	17.7	1	2	248	0.00	30.086 
09:05	23.2	23.2	23.2	80	18.0	1	5	248	0.00	30.086 
09:10	23.0	23.0	23.0	78	17.2	2	4	248	0.00	30.086 
09:15	23.0	23.0	23.0	78	17.2	1	2	248	0.00	30.087 
09:20	23.2	23.2	23.2	78	17.4	1	3	248	0.00	30.087 
09:25	23.3	23.3	23.3	78	17.5	1	3	248	0.00	30.087 
09:30	23.5	23.5	23.5	78	17.7	1	3	248	0.00	30.087 
09:35	23.3	23.3	23.3	77	17.2	2	4	248	0.00	30.087 
09:40	23.3	23.3	23.3	76	16.9	1	4	338	0.00	30.087 
09:45	23.5	23.5	23.5	76	17.1	1	3	270	0.00	30.085 
09:50	23.5	23.5	23.5	75	16.8	1	5	315	0.00	30.085 
09:55	23.5	23.5	23.5	74	16.5	1	4	338	0.00	30.085 
10:00	23.6	23.6	23.6	73	16.2	1	3	270	0.00	30.086 
10:05	24.1	24.1	24.1	73	16.7	1	5	270	0.00	30.086 
10:10	23.9	23.9	23.9	75	17.2	2	4	248	0.00	30.086 
10:15	22.9	22.9	22.9	77	16.8	2	5	270	0.00	30.092 
10:20	22.1	22.1	22.1	80	16.9	1	2	292	0.00	30.092 
10:25	21.9	21.9	21.9	80	16.7	1	3	292	0.00	30.092 
10:30	22.1	22.1	22.1	79	16.6	1	3	270	0.00	30.093 
10:35	22.7	22.7	22.7	78	16.9	2	4	270	0.00	30.093 
10:40	22.9	22.9	22.9	74	15.9	2	5	270	0.00	30.093 
10:45	23.3	23.3	23.3	73	15.9	2	4	270	0.00	30.090 
10:50	23.6	23.6	23.6	71	15.6	2	5	270	0.00	30.090 
10:55	23.3	23.3	23.3	68	14.3	2	5	270	0.00	30.090 
11:00	23.2	23.2	23.2	67	13.9	2	4	270	0.00	30.091 
11:05	23.5	23.5	23.5	68	14.5	2	4	248	0.00	30.091 
11:10	23.5	23.5	23.5	67	14.2	2	6	270	0.00	30.091 
11:15	23.5	23.5	23.5	67	14.2	1	5	248	0.00	30.088 
11:20	23.6	23.6	23.6	66	13.9	1	3	315	0.00	30.088 
11:25	23.6	23.6	23.6	66	13.9	1	3	315	0.00	30.088 
11:30	23.9	23.9	23.9	66	14.2	1	3	270	0.00	30.088 
11:35	23.9	23.9	23.9	66	14.2	1	3	292	0.00	30.088 
11:40	23.8	23.8	23.8	65	13.8	2	6	248	0.00	30.088 
11:45	23.6	23.6	23.6	66	13.9	2	6	292	0.00	30.088 
11:50	23.9	23.9	23.9	67	14.6	1	3	315	0.00	30.088 
11:55	24.7	24.7	24.7	66	15.0	2	4	248	0.00	30.088 
12:00	25.0	25.0	25.0	63	14.2	1	4	248	0.00	30.086 
12:05	24.7	24.7	24.7	62	13.6	1	3	248	0.00	30.086 
12:10	24.4	24.4	24.4	62	13.3	1	5	248	0.00	30.086 
12:15	24.2	24.2	24.2	61	12.7	2	5	248	0.00	30.084 
12:20	24.1	24.1	24.1	60	12.3	2	5	315	0.00	30.084 
12:25	24.2	24.2	24.2	60	12.3	1	6	338	0.00	30.084 
12:30	23.8	23.8	23.8	64	13.4	2	4	292	0.00	30.081 
12:35	23.3	23.3	23.3	66	13.6	1	4	338	0.00	30.081 
12:40	23.3	23.3	23.3	65	13.3	2	6	248	0.00	30.081 
12:45	23.3	23.3	23.3	64	13.0	2	6	248	0.00	30.078 
12:50	23.2	23.2	23.2	62	12.1	2	5	270	0.00	30.078 
12:55	23.2	23.2	23.2	60	11.4	2	4	270	0.00	30.078 
13:00	23.5	23.5	23.5	58	10.9	2	6	248	0.00	30.074 
13:05	23.6	23.6	23.6	60	11.8	2	5	248	0.00	30.074 
13:10	23.9	23.9	23.9	62	12.8	1	5	248	0.00	30.074 
13:15	24.1	24.1	24.1	62	13.0	1	4	270	0.00	30.070 
13:20	24.2	24.2	24.2	60	12.3	2	4	270	0.00	30.070 
13:25	24.2	24.2	24.2	61	12.7	1	6	315	0.00	30.070 
13:30	23.3	23.3	23.3	66	13.6	3	6	315	0.00	30.069 
13:35	22.4	22.4	22.4	69	13.8	3	9	315	0.00	30.069 
13:40	22.2	22.2	22.2	73	14.9	2	5	248	0.00	30.069 
13:45	22.2	22.2	22.2	76	15.8	2	3	248	0.00	30.070 
13:50	22.1	22.1	22.1	77	16.0	2	5	248	0.00	30.070 
13:55	22.1	22.1	22.1	77	16.0	2	7	315	0.00	30.070 
14:00	22.5	22.5	22.5	77	16.4	1	3	248	0.00	30.063 
14:05	23.3	23.3	23.3	75	16.6	2	5	270	0.00	30.063 
14:10	23.3	23.3	23.3	69	14.7	3	6	270	0.00	30.063 
14:15	23.3	23.3	23.3	69	14.7	3	5	248	0.00	30.064 
14:20	22.4	22.4	22.4	71	14.4	3	9	338	0.00	30.064 
14:25	21.8	21.8	21.8	72	14.2	3	6	270	0.00	30.064 
14:30	21.6	21.6	21.6	72	14.0	2	4	315	0.00	30.069 
14:35	21.6	21.6	21.6	71	13.7	2	5	270	0.00	30.069 
14:40	21.6	21.6	21.6	69	13.0	2	5	248	0.00	30.069 
14:45	21.6	21.6	21.6	68	12.7	3	5	338	0.00	30.070 
14:50	21.9	21.9	21.9	68	13.0	1	4	338	0.00	30.070 
14:55	22.1	22.1	22.1	68	13.2	3	5	270	0.00	30.070 
15:00	22.4	22.4	22.4	66	12.8	2	5	292	0.00	30.068 
15:05	22.9	22.9	22.9	64	12.6	2	5	338	0.00	30.068 
15:10	23.0	23.0	23.0	64	12.7	3	6	270	0.00	30.068 
15:15	22.9	22.9	22.9	63	12.2	2	5	270	0.00	30.069 
15:20	22.9	22.9	22.9	62	11.9	2	6	270	0.00	30.069 
15:25	22.4	22.4	22.4	60	10.6	3	11	292	0.00	30.069 
15:30	21.9	21.9	21.9	59	9.8	3	6	315	0.00	30.075 
15:35	21.9	21.9	21.9	60	10.2	2	5	338	0.00	30.075 
15:40	21.6	21.6	21.6	63	11.0	3	8	338	0.00	30.075 
15:45	21.3	21.3	21.3	68	12.4	2	6	315	0.00	30.079 
15:50	20.8	20.8	20.8	67	11.6	2	7	270	0.00	30.079 
15:55	20.8	20.8	20.8	66	11.3	2	5	315	0.00	30.079 
16:00	21.0	21.0	21.0	66	11.5	2	6	315	0.00	30.082 
16:05	21.0	21.0	21.0	67	11.8	3	7	315	0.00	30.082 
16:10	20.2	20.2	20.2	66	10.7	3	6	270	0.00	30.082 
16:15	19.7	19.7	19.7	65	9.9	3	10	315	0.00	30.090 
16:20	19.9	19.9	19.9	66	10.4	1	4	338	0.00	30.090 
16:25	20.0	20.0	20.0	66	10.5	2	9	315	0.00	30.090 
16:30	19.9	14.1	19.9	63	9.4	4	11	315	0.00	30.092 
16:35	19.5	19.5	19.5	64	9.3	3	7	270	0.00	30.092 
16:40	19.5	19.5	19.5	66	10.0	2	6	315	0.00	30.092 
16:45	19.4	19.4	19.4	68	10.6	3	10	338	0.00	30.095 
16:50	19.2	19.2	19.2	68	10.4	3	6	338	0.00	30.095 
16:55	19.2	19.2	19.2	65	9.4	3	6	315	0.00	30.095 
17:00	19.2	19.2	19.2	63	8.7	2	5	248	0.00	30.102 
17:05	19.2	19.2	19.2	60	7.6	2	5	270	0.00	30.102 
17:10	19.2	19.2	19.2	58	6.9	2	5	270	0.00	30.102 
17:15	19.2	19.2	19.2	56	6.1	2	6	248	0.00	30.105 
17:20	19.2	19.2	19.2	54	5.3	2	6	315	0.00	30.105 
17:25	19.2	19.2	19.2	53	4.9	2	4	315	0.00	30.105 
17:30	19.2	19.2	19.2	53	4.9	2	9	270	0.00	30.105 
17:35	19.2	19.2	19.2	52	4.5	2	5	248	0.00	30.105 
17:40	19.1	19.1	19.1	54	5.2	3	7	270	0.00	30.105 
17:45	18.8	12.8	18.8	58	6.5	4	6	270	0.00	30.109 
17:50	18.3	18.3	18.3	61	7.1	2	6	270	0.00	30.109 
17:55	18.1	18.1	18.1	61	6.9	2	5	338	0.00	30.109 
18:00	18.1	18.1	18.1	58	5.8	1	4	315	0.00	30.116 
18:05	18.1	18.1	18.1	55	4.7	2	6	292	0.00	30.116 
18:10	18.1	18.1	18.1	54	4.3	2	5	315	0.00	30.116 
18:15	18.3	18.3	18.3	52	3.7	2	5	292	0.00	30.124 
18:20	18.1	18.1	18.1	50	2.6	2	6	338	0.00	30.124 
18:25	18.0	18.0	18.0	49	2.1	1	5	338	0.00	30.124 
18:30	17.8	17.8	17.8	46	0.6	2	7	248	0.00	30.128 
18:35	17.8	17.8	17.8	45	0.1	2	5	315	0.00	30.128 
18:40	17.7	17.7	17.7	44	-0.5	2	6	315	0.00	30.128 
18:45	17.7	17.7	17.7	44	-0.5	1	4	292	0.00	30.132 
18:50	17.7	17.7	17.7	44	-0.5	1	6	315	0.00	30.132 
18:55	17.5	17.5	17.5	45	-0.2	1	3	338	0.00	30.132 
19:00	17.3	17.3	17.3	45	-0.4	2	7	338	0.00	30.140 
19:05	17.3	17.3	17.3	46	0.1	1	4	315	0.00	30.140 
19:10	17.2	17.2	17.2	47	0.5	1	4	0	0.00	30.140 
19:15	17.0	17.0	17.0	49	1.2	0	2	315	0.00	30.140 
19:20	16.9	16.9	16.9	50	1.5	0	3	315	0.00	30.140 
19:25	16.7	16.7	16.7	50	1.3	1	3	248	0.00	30.140 
19:30	16.7	16.7	16.7	50	1.3	2	5	248	0.00	30.142 
19:35	16.7	16.7	16.7	51	1.8	1	3	270	0.00	30.142 
19:40	16.5	16.5	16.5	52	2.0	1	3	338	0.00	30.142 
19:45	16.5	16.5	16.5	53	2.4	1	4	338	0.00	30.143 
19:50	16.4	16.4	16.4	54	2.7	1	3	248	0.00	30.143 
19:55	16.4	16.4	16.4	55	3.1	0	2	248	0.00	30.143 
20:00	16.2	16.2	16.2	57	3.7	1	3	248	0.00	30.145 
20:05	16.1	16.1	16.1	58	4.0	0	2	248	0.00	30.145 
20:10	16.1	16.1	16.1	60	4.7	0	1	248	0.00	30.145 
20:15	15.9	15.9	15.9	61	4.9	0	1	248	0.00	30.144 
20:20	15.7	15.7	15.7	62	5.0	0	1	248	0.00	30.144 
20:25	15.6	15.6	15.6	62	4.9	0	1	248	0.00	30.144 
20:30	15.4	15.4	15.4	63	5.1	0	1	248	0.00	30.143 
20:35	15.2	15.2	15.2	64	5.2	0	1	248	0.00	30.143 
20:40	15.2	15.2	15.2	65	5.6	0	1	248	0.00	30.143 
20:45	15.2	15.2	15.2	65	5.6	0	1	248	0.00	30.143 
20:50	15.1	15.1	15.1	65	5.5	0	1	248	0.00	30.143 
20:55	15.1	15.1	15.1	65	5.5	0	1	248	0.00	30.143 
21:00	15.1	15.1	15.1	66	5.8	0	2	248	0.00	30.143 
21:05	15.1	15.1	15.1	66	5.8	0	1	248	0.00	30.143 
21:10	14.9	14.9	14.9	67	6.0	0	1	248	0.00	30.143 
21:15	14.8	14.8	14.8	67	5.9	0	1	248	0.00	30.142 
21:20	14.8	14.8	14.8	68	6.2	0	1	248	0.00	30.142 
21:25	14.6	14.6	14.6	68	6.0	0	1	248	0.00	30.142 
21:30	14.6	14.6	14.6	68	6.0	0	0	---	0.00	30.143 
21:35	14.4	14.4	14.4	69	6.1	0	0	---	0.00	30.143 
21:40	14.3	14.3	14.3	69	6.0	0	0	---	0.00	30.143 
21:45	14.1	14.1	14.1	69	5.8	0	0	---	0.00	30.145 
21:50	14.1	14.1	14.1	69	5.8	0	0	---	0.00	30.145 
21:55	14.0	14.0	14.0	70	6.0	0	0	---	0.00	30.145 
22:00	13.8	13.8	13.8	70	5.9	0	1	248	0.00	30.146 
22:05	13.6	13.6	13.6	70	5.7	0	0	---	0.00	30.146 
22:10	13.5	13.5	13.5	71	5.9	0	0	---	0.00	30.146 
22:15	13.5	13.5	13.5	71	5.9	0	0	---	0.00	30.149 
22:20	13.5	13.5	13.5	72	6.2	0	1	248	0.00	30.149 
22:25	13.5	13.5	13.5	72	6.2	0	1	248	0.00	30.149 
22:30	13.6	13.6	13.6	72	6.3	0	1	248	0.00	30.149 
22:35	13.6	13.6	13.6	72	6.3	0	0	---	0.00	30.149 
22:40	13.6	13.6	13.6	72	6.3	0	1	248	0.00	30.149 
22:45	13.6	13.6	13.6	72	6.3	0	1	248	0.00	30.147 
22:50	13.6	13.6	13.6	72	6.3	0	1	248	0.00	30.147 
22:55	13.6	13.6	13.6	71	6.0	0	1	248	0.00	30.147 
23:00	13.5	13.5	13.5	71	5.9	0	1	248	0.00	30.146 
23:05	13.5	13.5	13.5	71	5.9	0	1	248	0.00	30.146 
23:10	13.5	13.5	13.5	71	5.9	0	2	248	0.00	30.146 
23:15	13.5	13.5	13.5	71	5.9	0	2	248	0.00	30.145 
23:20	13.5	13.5	13.5	72	6.2	0	1	248	0.00	30.145 
23:25	13.5	13.5	13.5	72	6.2	0	1	248	0.00	30.145 
23:30	13.5	13.5	13.5	71	5.9	0	1	248	0.00	30.143 
23:35	13.5	13.5	13.5	72	6.2	0	2	248	0.00	30.143 
23:40	13.5	13.5	13.5	72	6.2	0	2	248	0.00	30.143 
23:45	13.6	13.6	13.6	72	6.3	0	1	248	0.00	30.138 
23:50	13.6	13.6	13.6	72	6.3	0	1	248	0.00	30.138 
23:55	13.5	13.5	13.5	72	6.2	0	1	248	0.00	30.138 

CoCoRaHS
IN-AL-39
A2 Web Hosting
Creative Commons License
GoDaddy
search engine by freefind advanced

loaded 2018-11-20 07:01:25 • last modified 2010-11-18 10:43:29
Privacy PolicyDisclaimer
• wx.awcolley.com is powered by PmWiki v.2002016 •
• all content (unless otherwise noted) © 2018 A W Colley